Concord, New Hampshire
Current Conditions -  °F | °C
As of 4:51 PM on Tuesday 21 Oct 2014 (Local Time) from KCON Reporting Station
Overcast Overcast  
Wind Chill: 53°   Ceiling: 900
Heat Index: 53°   Visibility: 10mi
Dew Point: 49°   Wind: 9mph
Humidity: 86%   Direction: 30°NNE
Pressure: 29.96"   Gusts: NA
Location:  43.21°N, 71.54°W
Report Text: KCON 212051Z AUTO 03008KT 10SM OVC009 12/09 A2996 RMK AO2 SLP148 T01170094 53004
Loading
Personal Weather Stations






























Interactive Weather Map New forecast layout! Learn more

10-Day Weather Forecast

Advertisements
Track Severe Weather on mobile